createdAt,value
2019-03-23T00:01:16.537Z,94849.54
2019-03-23T00:03:45.148Z,94851.00
2019-03-23T00:06:13.640Z,94855.24
2019-03-23T00:08:42.195Z,94850.05
2019-03-23T00:11:10.636Z,94851.00
2019-03-23T00:13:39.192Z,94851.86
2019-03-23T00:16:07.685Z,94857.21
2019-03-23T00:18:36.146Z,94859.45
2019-03-23T00:21:04.673Z,94855.40
2019-03-23T00:23:33.176Z,94857.84
2019-03-23T00:26:01.619Z,94858.98
2019-03-23T00:28:30.147Z,94856.19
2019-03-23T00:30:58.602Z,94857.57
2019-03-23T00:33:27.078Z,94850.56
2019-03-23T00:35:55.507Z,94852.89
2019-03-23T00:38:24.046Z,94858.06
2019-03-23T00:40:52.476Z,94857.76
2019-03-23T00:43:20.929Z,94847.70
2019-03-23T00:45:49.356Z,94846.31
2019-03-23T00:48:17.824Z,94844.94
2019-03-23T00:50:46.412Z,94849.61
2019-03-23T00:53:14.931Z,94847.99
2019-03-23T00:55:43.384Z,94849.19
2019-03-23T00:58:11.831Z,94843.86
2019-03-23T01:00:40.301Z,94847.17
2019-03-23T01:03:08.729Z,94847.72
2019-03-23T01:05:37.254Z,94842.05
2019-03-23T01:08:05.683Z,94850.77
2019-03-23T01:10:34.160Z,94847.26
2019-03-23T01:13:02.652Z,94846.25
2019-03-23T01:15:31.174Z,94842.72
2019-03-23T01:17:59.695Z,94837.30
2019-03-23T01:20:28.159Z,94838.59
2019-03-23T01:22:56.582Z,94835.50
2019-03-23T01:25:25.065Z,94835.32
2019-03-23T01:27:53.531Z,94828.36
2019-03-23T01:30:22.020Z,94831.75
2019-03-23T01:32:50.472Z,94825.21
2019-03-23T01:35:18.894Z,94834.66
2019-03-23T01:37:47.425Z,94829.27
2019-03-23T01:40:15.911Z,94830.97
2019-03-23T01:42:44.373Z,94832.61
2019-03-23T01:45:13.632Z,94836.59
2019-03-23T01:47:42.127Z,94829.98
2019-03-23T01:50:11.914Z,94829.41
2019-03-23T01:52:40.403Z,94833.33
2019-03-23T01:55:09.406Z,94826.72
2019-03-23T01:57:37.918Z,94826.53
2019-03-23T02:00:09.314Z,94822.52
2019-03-23T02:02:37.774Z,94830.65
2019-03-23T02:05:07.859Z,94823.84
2019-03-23T02:07:36.305Z,94824.23
2019-03-23T02:10:08.154Z,94818.80
2019-03-23T02:12:36.674Z,94819.86
2019-03-23T02:15:08.325Z,94807.50
2019-03-23T02:17:36.797Z,94818.11
2019-03-23T02:20:13.530Z,94819.99
2019-03-23T02:22:42.049Z,94816.95
2019-03-23T02:25:10.648Z,94820.73
2019-03-23T02:27:39.190Z,94816.49
2019-03-23T02:30:10.355Z,94816.23
2019-03-23T02:32:38.864Z,94828.61
2019-03-23T02:35:08.937Z,94827.57
2019-03-23T02:37:37.512Z,94836.50
2019-03-23T02:40:10.499Z,94830.97
2019-03-23T02:42:39.125Z,94828.63
2019-03-23T02:45:09.597Z,94832.05
2019-03-23T02:47:38.030Z,94829.95
2019-03-23T02:50:10.371Z,94833.11
2019-03-23T02:52:38.902Z,94823.70
2019-03-23T02:55:09.687Z,94825.48
2019-03-23T02:57:38.256Z,94827.36
2019-03-23T03:00:17.435Z,94833.01
2019-03-23T03:02:46.028Z,94834.77
2019-03-23T03:05:14.733Z,94832.75
2019-03-23T03:07:44.047Z,94834.42
2019-03-23T03:10:21.653Z,94832.91
2019-03-23T03:12:50.108Z,94835.50
2019-03-23T03:15:18.623Z,94832.78
2019-03-23T03:17:47.086Z,94831.38
2019-03-23T03:20:15.683Z,94836.19
2019-03-23T03:22:44.132Z,94834.90
2019-03-23T03:25:12.653Z,94834.79
2019-03-23T03:27:41.133Z,94834.54
2019-03-23T03:30:11.534Z,94835.37
2019-03-23T03:32:40.030Z,94830.55
2019-03-23T03:35:08.670Z,94835.51
2019-03-23T03:37:37.231Z,94831.02
2019-03-23T03:40:07.337Z,94835.01
2019-03-23T03:42:35.892Z,94834.21
2019-03-23T03:45:09.385Z,94831.95
2019-03-23T03:47:41.080Z,94831.48
2019-03-23T03:50:09.669Z,94829.97
2019-03-23T03:52:38.146Z,94828.89
2019-03-23T03:55:07.275Z,94825.27
2019-03-23T03:57:35.756Z,94825.62
2019-03-23T04:00:07.166Z,94827.13
2019-03-23T04:02:35.711Z,94828.31
2019-03-23T04:05:04.768Z,94824.19
2019-03-23T04:07:33.188Z,94830.18
2019-03-23T04:10:01.657Z,94823.86
2019-03-23T04:12:31.766Z,94820.91
2019-03-23T04:15:00.366Z,94822.20
2019-03-23T04:17:29.031Z,94820.80
2019-03-23T04:19:57.472Z,94819.01
2019-03-23T04:22:25.992Z,94820.45
2019-03-23T04:24:54.448Z,94815.84
2019-03-23T04:27:22.891Z,94817.61
2019-03-23T04:29:51.349Z,94818.44
2019-03-23T04:32:19.807Z,94817.03
2019-03-23T04:34:48.307Z,94822.32
2019-03-23T04:37:16.766Z,94815.13
2019-03-23T04:39:45.185Z,94805.03
2019-03-23T04:42:13.644Z,94802.44
2019-03-23T04:44:42.076Z,94805.49
2019-03-23T04:47:10.611Z,94806.21
2019-03-23T04:49:39.030Z,94810.42
2019-03-23T04:52:07.494Z,94807.83
2019-03-23T04:54:35.914Z,94800.89
2019-03-23T04:57:04.497Z,94802.66
2019-03-23T04:59:32.911Z,94808.19
2019-03-23T05:02:01.447Z,94807.37
2019-03-23T05:04:29.939Z,94806.42
2019-03-23T05:06:58.409Z,94799.95
2019-03-23T05:09:26.832Z,94798.19
2019-03-23T05:11:55.327Z,94806.89
2019-03-23T05:14:23.800Z,94801.14
2019-03-23T05:16:52.240Z,94810.09
2019-03-23T05:19:20.857Z,94819.83
2019-03-23T05:21:49.312Z,94819.37
2019-03-23T05:24:17.835Z,94816.09
2019-03-23T05:26:46.310Z,94815.27
2019-03-23T05:29:14.733Z,94826.42
2019-03-23T05:31:43.164Z,94822.43
2019-03-23T05:34:11.681Z,94821.74
2019-03-23T05:36:40.098Z,94823.14
2019-03-23T05:39:08.559Z,94832.31
2019-03-23T05:41:37.042Z,94829.01
2019-03-23T05:44:05.641Z,94825.73
2019-03-23T05:46:34.105Z,94829.25
2019-03-23T05:49:02.507Z,94830.30
2019-03-23T05:51:30.970Z,94829.01
2019-03-23T05:53:59.476Z,94819.73
2019-03-23T05:56:27.929Z,94826.20
2019-03-23T05:58:56.392Z,94826.89
2019-03-23T06:01:24.807Z,94823.33
2019-03-23T06:03:53.261Z,94831.67
2019-03-23T06:06:21.728Z,94834.66
2019-03-23T06:08:55.063Z,94830.81
2019-03-23T06:11:20.304Z,94834.26
2019-03-23T06:13:48.773Z,94832.47
2019-03-23T06:16:17.964Z,94833.64
2019-03-23T06:18:46.549Z,94835.00
2019-03-23T06:21:14.995Z,94827.21
2019-03-23T06:23:43.418Z,94823.39
2019-03-23T06:26:11.874Z,94821.81
2019-03-23T06:28:40.307Z,94822.75
2019-03-23T06:31:08.867Z,94820.80
2019-03-23T06:33:37.281Z,94820.88
2019-03-23T06:36:06.010Z,94819.97
2019-03-23T06:38:34.471Z,94819.75
2019-03-23T06:41:02.898Z,94820.34
2019-03-23T06:43:31.358Z,94817.70
2019-03-23T06:45:59.795Z,94818.97
2019-03-23T06:48:28.255Z,94816.23
2019-03-23T06:50:56.682Z,94820.20
2019-03-23T06:53:25.218Z,94824.41
2019-03-23T06:55:53.641Z,94827.66
2019-03-23T06:58:22.111Z,94824.02
2019-03-23T07:00:50.598Z,94826.98
2019-03-23T07:03:19.099Z,94820.31
2019-03-23T07:05:47.623Z,94826.05
2019-03-23T07:08:16.045Z,94819.52
2019-03-23T07:10:44.589Z,94824.28
2019-03-23T07:13:13.055Z,94818.30
2019-03-23T07:15:41.530Z,94820.49
2019-03-23T07:18:09.960Z,94818.72
2019-03-23T07:20:38.414Z,94825.58
2019-03-23T07:23:07.015Z,94819.70
2019-03-23T07:25:35.457Z,94821.34
2019-03-23T07:28:04.078Z,94820.86
2019-03-23T07:30:32.603Z,94829.36
2019-03-23T07:33:01.148Z,94828.16
2019-03-23T07:35:29.687Z,94826.83
2019-03-23T07:37:58.223Z,94823.88
2019-03-23T07:40:26.750Z,94817.94
2019-03-23T07:42:55.266Z,94823.58
2019-03-23T07:45:23.824Z,94822.05
2019-03-23T07:47:52.325Z,94823.25
2019-03-23T07:50:20.745Z,94815.80
2019-03-23T07:52:49.279Z,94816.63
2019-03-23T07:55:17.811Z,94819.59
2019-03-23T07:57:46.320Z,94822.23
2019-03-23T08:00:20.302Z,94825.61
2019-03-23T08:02:48.883Z,94822.92
2019-03-23T08:05:17.504Z,94831.70
2019-03-23T08:07:46.077Z,94825.06
2019-03-23T08:10:17.592Z,94822.86
2019-03-23T08:12:47.056Z,94834.03
2019-03-23T08:15:15.566Z,94832.95
2019-03-23T08:17:44.125Z,94826.89
2019-03-23T08:20:12.693Z,94827.26
2019-03-23T08:22:41.146Z,94828.19
2019-03-23T08:25:09.736Z,94823.64
2019-03-23T08:27:38.193Z,94828.75
2019-03-23T08:30:07.075Z,94828.25
2019-03-23T08:32:35.618Z,94831.75
2019-03-23T08:35:05.093Z,94837.16
2019-03-23T08:37:33.697Z,94837.75
2019-03-23T08:40:02.241Z,94833.37
2019-03-23T08:42:30.663Z,94831.88
2019-03-23T08:44:59.120Z,94837.48
2019-03-23T08:47:27.618Z,94829.36
2019-03-23T08:49:56.158Z,94829.82
2019-03-23T08:52:24.660Z,94832.41
2019-03-23T08:54:53.127Z,94834.11
2019-03-23T08:57:21.695Z,94827.79
2019-03-23T08:59:50.178Z,94825.02
2019-03-23T09:02:18.675Z,94825.01
2019-03-23T09:04:47.115Z,94819.61
2019-03-23T09:07:15.582Z,94821.23
2019-03-23T09:09:44.013Z,94817.47
2019-03-23T09:12:12.472Z,94820.53
2019-03-23T09:14:40.907Z,94818.94
2019-03-23T09:17:09.464Z,94818.91
2019-03-23T09:19:37.957Z,94820.55
2019-03-23T09:22:06.468Z,94811.59
2019-03-23T09:24:34.890Z,94815.53
2019-03-23T09:27:03.377Z,94814.31
2019-03-23T09:29:31.868Z,94818.14
2019-03-23T09:32:00.323Z,94815.56
2019-03-23T09:34:28.749Z,94806.34
2019-03-23T09:36:57.202Z,94801.66
2019-03-23T09:39:25.634Z,94801.61
2019-03-23T09:41:54.171Z,94798.74
2019-03-23T09:44:22.613Z,94797.62
2019-03-23T09:46:51.050Z,94786.62
2019-03-23T09:49:21.951Z,94788.27
2019-03-23T09:51:49.759Z,94782.80
2019-03-23T09:54:18.229Z,94793.67
2019-03-23T09:56:46.752Z,94784.11
2019-03-23T09:59:15.273Z,94772.19
2019-03-23T10:01:43.785Z,94765.69
2019-03-23T10:04:12.254Z,94786.47
2019-03-23T10:06:40.695Z,94791.11
2019-03-23T10:09:09.175Z,94788.37
2019-03-23T10:11:37.675Z,94788.80
2019-03-23T10:14:06.145Z,94777.95
2019-03-23T10:16:34.646Z,94775.55
2019-03-23T10:19:03.125Z,94775.53
2019-03-23T10:21:31.581Z,94759.38
2019-03-23T10:24:00.043Z,94771.87
2019-03-23T10:26:28.583Z,94773.08
2019-03-23T10:28:57.033Z,94775.52
2019-03-23T10:31:25.548Z,94747.84
2019-03-23T10:33:54.079Z,94772.20
2019-03-23T10:36:22.515Z,94769.80
2019-03-23T10:38:50.968Z,94771.19
2019-03-23T10:41:19.535Z,94768.81
2019-03-23T10:43:48.009Z,94761.12
2019-03-23T10:46:16.447Z,94760.16
2019-03-23T10:48:44.883Z,94766.54
2019-03-23T10:51:13.434Z,94761.73
2019-03-23T10:53:41.873Z,94757.13
2019-03-23T10:56:10.345Z,94755.77
2019-03-23T10:58:38.817Z,94754.30
2019-03-23T11:01:07.315Z,94761.89
2019-03-23T11:03:35.936Z,94755.27
2019-03-23T11:06:04.506Z,94757.67
2019-03-23T11:08:32.926Z,94763.02
2019-03-23T11:11:01.390Z,94767.50
2019-03-23T11:13:29.875Z,94760.58
2019-03-23T11:15:58.137Z,94759.19
2019-03-23T11:18:26.600Z,94762.77
2019-03-23T11:20:55.024Z,94755.91
2019-03-23T11:23:23.552Z,94752.16
2019-03-23T11:25:52.022Z,94752.75
2019-03-23T11:28:20.453Z,94763.29
2019-03-23T11:30:48.909Z,94751.86
2019-03-23T11:33:17.422Z,94757.09
2019-03-23T11:35:45.879Z,94743.38
2019-03-23T11:38:14.425Z,94750.84
2019-03-23T11:40:52.183Z,94747.61
2019-03-23T11:43:13.088Z,94745.34
2019-03-23T11:45:41.569Z,94746.94
2019-03-23T11:48:10.011Z,94746.18
2019-03-23T11:50:38.458Z,94748.23
2019-03-23T11:53:07.308Z,94746.52
2019-03-23T11:55:35.737Z,94734.74
2019-03-23T11:58:04.260Z,94735.69
2019-03-23T12:00:32.863Z,94733.58
2019-03-23T12:03:01.324Z,94737.56
2019-03-23T12:05:29.778Z,94735.94
2019-03-23T12:07:58.239Z,94736.89
2019-03-23T12:10:26.807Z,94734.89
2019-03-23T12:12:55.755Z,94737.57
2019-03-23T12:15:24.230Z,94737.19
2019-03-23T12:17:52.645Z,94725.86
2019-03-23T12:20:21.155Z,94737.40
2019-03-23T12:22:49.677Z,94726.94
2019-03-23T12:25:18.110Z,94729.22
2019-03-23T12:27:46.562Z,94721.39
2019-03-23T12:30:17.014Z,94716.06
2019-03-23T12:32:45.689Z,94720.33
2019-03-23T12:35:14.585Z,94715.32
2019-03-23T12:37:43.095Z,94707.37
2019-03-23T12:40:12.345Z,94706.77
2019-03-23T12:42:40.951Z,94700.78
2019-03-23T12:45:10.155Z,94708.72
2019-03-23T12:47:38.701Z,94708.92
2019-03-23T12:50:08.722Z,94707.66
2019-03-23T12:52:37.290Z,94706.55
2019-03-23T12:55:07.567Z,94713.91
2019-03-23T12:57:36.145Z,94711.27
2019-03-23T13:00:07.738Z,94709.42
2019-03-23T13:02:36.270Z,94701.28
2019-03-23T13:05:07.299Z,94703.80
2019-03-23T13:07:35.790Z,94703.01
2019-03-23T13:10:06.614Z,94694.83
2019-03-23T13:12:35.117Z,94697.92
2019-03-23T13:15:04.785Z,94703.08
2019-03-23T13:17:33.306Z,94695.95
2019-03-23T13:20:01.810Z,94695.16
2019-03-23T13:22:30.242Z,94687.84
2019-03-23T13:24:58.694Z,94690.55
2019-03-23T13:27:27.294Z,94683.91
2019-03-23T13:29:55.759Z,94686.99
2019-03-23T13:32:24.244Z,94676.03
2019-03-23T13:34:52.761Z,94676.10
2019-03-23T13:37:21.383Z,94667.28
2019-03-23T13:39:49.844Z,94667.45
2019-03-23T13:42:18.371Z,94672.53
2019-03-23T13:44:46.948Z,94669.43
2019-03-23T13:47:15.493Z,94669.12
2019-03-23T13:49:43.958Z,94672.67
2019-03-23T13:52:12.407Z,94662.62
2019-03-23T13:54:41.020Z,94662.17
2019-03-23T13:57:09.528Z,94661.02
2019-03-23T13:59:38.770Z,94655.98
2019-03-23T14:02:07.341Z,94655.09
2019-03-23T14:04:35.839Z,94653.16
2019-03-23T14:07:04.451Z,94653.02
2019-03-23T14:09:32.925Z,94655.67
2019-03-23T14:12:01.349Z,94645.17
2019-03-23T14:14:29.801Z,94646.37
2019-03-23T14:16:58.414Z,94649.14
2019-03-23T14:19:26.921Z,94650.74
2019-03-23T14:21:55.510Z,94654.00
2019-03-23T14:24:24.349Z,94652.78
2019-03-23T14:26:52.774Z,94648.43
2019-03-23T14:29:21.282Z,94640.12
2019-03-23T14:31:49.761Z,94642.73
2019-03-23T14:34:18.229Z,94637.10
2019-03-23T14:36:46.727Z,94630.93
2019-03-23T14:39:15.194Z,94632.91
2019-03-23T14:41:43.682Z,94634.83
2019-03-23T14:44:12.096Z,94632.97
2019-03-23T14:46:40.535Z,94629.16
2019-03-23T14:49:09.004Z,94631.34
2019-03-23T14:51:37.440Z,94620.67
2019-03-23T14:54:05.910Z,94629.75
2019-03-23T14:56:34.377Z,94636.53
2019-03-23T14:59:02.855Z,94637.25
2019-03-23T15:01:31.362Z,94631.45
2019-03-23T15:03:59.864Z,94636.11
2019-03-23T15:06:28.334Z,94634.28
2019-03-23T15:08:56.775Z,94629.19
2019-03-23T15:11:25.283Z,94630.64
2019-03-23T15:13:54.677Z,94631.05
2019-03-23T15:16:23.110Z,94629.86
2019-03-23T15:18:52.529Z,94628.06
2019-03-23T15:21:20.959Z,94626.76
2019-03-23T15:23:49.413Z,94625.80
2019-03-23T15:26:17.978Z,94625.98
2019-03-23T15:28:46.524Z,94625.03
2019-03-23T15:31:15.079Z,94625.75
2019-03-23T15:33:43.503Z,94627.10
2019-03-23T15:36:12.021Z,94633.63
2019-03-23T15:38:40.493Z,94628.69
2019-03-23T15:41:09.030Z,94627.28
2019-03-23T15:43:37.503Z,94623.67
2019-03-23T15:46:06.154Z,94628.60
2019-03-23T15:48:34.608Z,94628.25
2019-03-23T15:51:03.115Z,94623.80
2019-03-23T15:53:31.689Z,94622.58
2019-03-23T15:56:00.258Z,94625.96
2019-03-23T15:58:28.841Z,94625.52
2019-03-23T16:00:57.307Z,94631.80
2019-03-23T16:03:25.840Z,94630.39
2019-03-23T16:05:54.333Z,94629.98
2019-03-23T16:08:22.889Z,94630.92
2019-03-23T16:10:51.377Z,94632.91
2019-03-23T16:13:19.887Z,94634.50
2019-03-23T16:15:48.398Z,94626.76
2019-03-23T16:18:16.953Z,94625.56
2019-03-23T16:20:45.392Z,94625.38
2019-03-23T16:23:13.876Z,94632.30
2019-03-23T16:25:42.608Z,94628.67
2019-03-23T16:28:11.063Z,94627.02
2019-03-23T16:30:39.576Z,94629.04
2019-03-23T16:33:08.259Z,94629.66
2019-03-23T16:35:36.794Z,94628.48
2019-03-23T16:38:05.240Z,94633.77
2019-03-23T16:40:33.691Z,94632.45
2019-03-23T16:43:02.535Z,94633.09
2019-03-23T16:45:31.105Z,94638.27
2019-03-23T16:47:59.704Z,94637.14
2019-03-23T16:50:28.245Z,94633.80
2019-03-23T16:52:56.746Z,94638.70
2019-03-23T16:55:25.298Z,94640.11
2019-03-23T16:57:53.766Z,94646.25
2019-03-23T17:00:33.946Z,94643.91
2019-03-23T17:03:02.802Z,94636.84
2019-03-23T17:05:31.388Z,94638.11
2019-03-23T17:07:59.870Z,94638.70
2019-03-23T17:10:28.306Z,94642.53
2019-03-23T17:12:56.747Z,94635.73
2019-03-23T17:15:25.312Z,94642.34
2019-03-23T17:17:53.785Z,94639.56
2019-03-23T17:20:22.293Z,94650.11
2019-03-23T17:22:50.770Z,94647.93
2019-03-23T17:25:19.587Z,94652.69
2019-03-23T17:27:48.061Z,94647.25
2019-03-23T17:30:16.681Z,94648.45
2019-03-23T17:32:45.107Z,94648.50
2019-03-23T17:35:13.751Z,94649.38
2019-03-23T17:37:42.350Z,94656.52
2019-03-23T17:40:11.034Z,94654.66
2019-03-23T17:42:39.509Z,94653.83
2019-03-23T17:45:09.348Z,94652.97
2019-03-23T17:47:37.811Z,94659.61
2019-03-23T17:50:06.804Z,94659.14
2019-03-23T17:52:35.263Z,94656.22
2019-03-23T17:55:04.951Z,94659.38
2019-03-23T17:57:33.521Z,94664.59
2019-03-23T18:00:02.012Z,94660.59
2019-03-23T18:02:30.449Z,94665.63
2019-03-23T18:04:58.869Z,94665.55
2019-03-23T18:07:27.535Z,94668.19
2019-03-23T18:09:56.031Z,94670.72
2019-03-23T18:12:24.498Z,94673.00
2019-03-23T18:14:53.028Z,94684.39
2019-03-23T18:17:21.496Z,94683.56
2019-03-23T18:19:50.112Z,94686.70
2019-03-23T18:22:18.554Z,94690.46
2019-03-23T18:24:47.046Z,94691.38
2019-03-23T18:27:17.068Z,94695.16
2019-03-23T18:29:47.484Z,94699.52
2019-03-23T18:32:15.842Z,94694.72
2019-03-23T18:34:44.305Z,94699.96
2019-03-23T18:37:12.842Z,94706.39
2019-03-23T18:39:41.255Z,94710.57
2019-03-23T18:42:09.873Z,94708.72
2019-03-23T18:44:38.455Z,94705.61
2019-03-23T18:47:06.933Z,94714.84
2019-03-23T18:49:35.457Z,94720.52
2019-03-23T18:52:04.059Z,94724.29
2019-03-23T18:54:32.598Z,94725.51
2019-03-23T18:57:01.033Z,94725.90
2019-03-23T18:59:29.591Z,94727.60
2019-03-23T19:01:58.038Z,94728.67
2019-03-23T19:04:26.544Z,94729.64
2019-03-23T19:06:55.028Z,94729.79
2019-03-23T19:09:23.563Z,94727.61
2019-03-23T19:11:52.042Z,94727.50
2019-03-23T19:14:20.571Z,94726.19
2019-03-23T19:16:49.127Z,94725.00
2019-03-23T19:19:17.554Z,94729.15
2019-03-23T19:21:46.085Z,94721.89
2019-03-23T19:24:14.535Z,94731.12
2019-03-23T19:26:43.051Z,94734.11
2019-03-23T19:29:11.498Z,94734.14
2019-03-23T19:31:39.960Z,94734.54
2019-03-23T19:34:08.404Z,94739.19
2019-03-23T19:36:36.936Z,94738.15
2019-03-23T19:39:07.705Z,94730.20
2019-03-23T19:41:36.207Z,94729.38
2019-03-23T19:44:05.062Z,94731.28
2019-03-23T19:46:33.571Z,94731.81
2019-03-23T19:49:02.083Z,94729.88
2019-03-23T19:51:30.559Z,94732.16
2019-03-23T19:53:59.070Z,94730.55
2019-03-23T19:56:27.641Z,94734.81
2019-03-23T19:58:56.100Z,94736.45
2019-03-23T20:01:24.717Z,94732.83
2019-03-23T20:03:53.225Z,94730.91
2019-03-23T20:06:21.793Z,94735.84
2019-03-23T20:08:50.683Z,94739.42
2019-03-23T20:11:19.284Z,94745.39
2019-03-23T20:13:47.692Z,94744.08
2019-03-23T20:16:16.266Z,94740.16
2019-03-23T20:18:44.765Z,94736.86
2019-03-23T20:21:13.234Z,94743.74
2019-03-23T20:23:41.674Z,94738.81
2019-03-23T20:26:10.132Z,94737.02
2019-03-23T20:28:38.671Z,94750.89
2019-03-23T20:31:07.204Z,94738.97
2019-03-23T20:33:35.823Z,94745.63
2019-03-23T20:36:04.422Z,94742.69
2019-03-23T20:38:32.966Z,94744.66
2019-03-23T20:41:01.472Z,94736.74
2019-03-23T20:43:29.982Z,94738.34
2019-03-23T20:45:58.478Z,94744.11
2019-03-23T20:48:26.923Z,94737.57
2019-03-23T20:50:55.539Z,94737.99
2019-03-23T20:53:24.128Z,94741.49
2019-03-23T20:55:52.594Z,94739.70
2019-03-23T20:58:21.175Z,94735.80
2019-03-23T21:00:49.662Z,94734.73
2019-03-23T21:03:18.214Z,94736.04
2019-03-23T21:05:46.649Z,94734.77
2019-03-23T21:08:15.132Z,94732.20
2019-03-23T21:10:43.642Z,94736.59
2019-03-23T21:13:14.781Z,94741.72
2019-03-23T21:15:43.248Z,94740.44
2019-03-23T21:18:11.778Z,94736.22
2019-03-23T21:20:40.327Z,94740.33
2019-03-23T21:23:08.743Z,94735.11
2019-03-23T21:25:37.565Z,94736.22
2019-03-23T21:28:06.128Z,94734.57
2019-03-23T21:30:34.595Z,94734.21
2019-03-23T21:33:03.066Z,94728.45
2019-03-23T21:35:31.519Z,94729.04
2019-03-23T21:38:00.144Z,94717.76
2019-03-23T21:40:28.632Z,94721.58
2019-03-23T21:42:57.132Z,94717.39
2019-03-23T21:45:25.737Z,94717.52
2019-03-23T21:47:54.167Z,94716.98
2019-03-23T21:50:22.671Z,94712.46
2019-03-23T21:52:51.409Z,94709.85
2019-03-23T21:55:19.926Z,94705.45
2019-03-23T21:57:48.378Z,94708.20
2019-03-23T22:00:19.969Z,94701.08
2019-03-23T22:02:48.419Z,94701.91
2019-03-23T22:05:16.946Z,94699.02
2019-03-23T22:07:45.501Z,94698.93
2019-03-23T22:10:13.988Z,94697.83
2019-03-23T22:12:42.510Z,94694.88
2019-03-23T22:15:11.289Z,94691.25
2019-03-23T22:17:39.734Z,94688.36
2019-03-23T22:20:09.623Z,94686.34
2019-03-23T22:22:38.070Z,94686.63
2019-03-23T22:25:07.436Z,94688.98
2019-03-23T22:27:39.341Z,94689.70
2019-03-23T22:30:13.165Z,94685.67
2019-03-23T22:32:41.661Z,94687.76
2019-03-23T22:35:10.383Z,94687.23
2019-03-23T22:37:38.968Z,94691.33
2019-03-23T22:40:10.509Z,94684.25
2019-03-23T22:42:39.129Z,94692.08
2019-03-23T22:45:08.998Z,94688.72
2019-03-23T22:47:37.466Z,94684.41
2019-03-23T22:50:07.334Z,94680.44
2019-03-23T22:52:35.948Z,94678.86
2019-03-23T22:55:06.112Z,94674.72
2019-03-23T22:57:34.635Z,94677.48
2019-03-23T23:00:03.431Z,94680.84
2019-03-23T23:02:31.870Z,94674.75
2019-03-23T23:05:00.327Z,94670.25
2019-03-23T23:07:29.270Z,94667.64
2019-03-23T23:09:57.839Z,94669.73
2019-03-23T23:12:26.363Z,94663.70
2019-03-23T23:15:04.038Z,94661.82
2019-03-23T23:17:25.104Z,94659.47
2019-03-23T23:19:53.749Z,94655.09
2019-03-23T23:22:22.181Z,94654.44
2019-03-23T23:24:50.618Z,94652.19
2019-03-23T23:27:19.092Z,94650.54
2019-03-23T23:29:47.641Z,94643.46
2019-03-23T23:32:16.160Z,94646.67
2019-03-23T23:34:44.619Z,94638.98
2019-03-23T23:37:13.150Z,94638.87
2019-03-23T23:39:41.674Z,94644.56
2019-03-23T23:42:10.133Z,94635.77
2019-03-23T23:44:38.573Z,94639.76
2019-03-23T23:47:07.116Z,94631.64
2019-03-23T23:49:35.608Z,94633.00
2019-03-23T23:52:04.352Z,94629.22
2019-03-23T23:54:32.789Z,94631.94
2019-03-23T23:57:01.511Z,94625.53
2019-03-23T23:59:30.013Z,94627.89
